Terminal Aerodrome Forecast
Issued by NWS

Home | Current Version | Previous Version | Graphics & Text | Print | Product List | Glossary On
Versions: 1 2 3 4 5 6 7 8 9 10 11 12 13 14 15 16 17 18 19 20 21 22 23 24 25 26 27 28
000
FTUS43 KGRB 181900 AAA
TAFCWA
TAF AMD
KCWA 181956Z 1820/1918 13005KT 3SM BR OVC005
      TEMPO 1820/1824 3SM -TSRA BKN012CB
     FM190000 16006KT 5SM -TSRA BKN018CB
     FM190600 VRB03KT 4SM -SHRA BR BKN005
      TEMPO 1906/1910 2SM TSRA BR OVC004CB
     FM191400 28005KT 6SM BR VCSH SCT005 BKN022=

USA.gov is the U.S. government's official web portal to all federal, state and local government web resources and services.